Shamrock — FAA8907 — position and weather

sailwx.info

Track history (hours):
 
Tides and Currents Weather Stations Pressure Air Temp Water Temp Dewpoint Dewpoint Depression Visibility Wind Speed Wind Dir Waves Ship Positions

Shamrock

Last reported at 2017-Nov-08 12:07 UTC. Time now 2017-Nov-19 06:56 UTC.
Position N 50°39' W 001°53'.
Warning: this ship's position is 10 days out of date.

Length 12 m.

Type: Sailing vessel. MMSI: 227167240.

Date/timePositionNaut miles runAvg speedWind from/ knotsBaromVisibWave heightAir tempDewpointWater temp
2017-Nov-08 12:07N 50°39' W 001°53'1 5.2
2017-Nov-08 11:59N 50°39' W 001°54'4 3.2
2017-Nov-08 10:52N 50°42' W 001°57'1 0.1
2017-Nov-07 21:03N 50°42' W 001°59'0 2.1
2017-Nov-07 20:59N 50°42' W 001°59'2 1.5
2017-Nov-07 19:36N 50°41' W 001°57'1 3.8
2017-Nov-07 19:19N 50°40' W 001°56'1 2.7
2017-Nov-07 19:00N 50°39' W 001°55'0 0.8
2017-Nov-07 18:30N 50°39' W 001°55'0 0.5
2017-Nov-07 18:00N 50°39' W 001°55'0 0.2
2017-Nov-07 16:41N 50°39' W 001°55'0 2.7
2017-Nov-07 16:30N 50°39' W 001°55'1 1.7
2017-Nov-07 16:00N 50°38' W 001°54'1 2.3
2017-Nov-07 15:30N 50°37' W 001°53'  
2017-Oct-31 09:08N 48°41' W 004°31'2 5.2
2017-Oct-31 08:47N 48°41' W 004°34'4 0.3
2017-Oct-30 18:46N 48°37' W 004°37'1 4.4
2017-Oct-30 18:30N 48°37' W 004°38'2 2.2
2017-Oct-30 17:39N 48°38' W 004°41'11 2.3
2017-Oct-30 12:50N 48°34' W 004°56'0 0.6
2017-Oct-30 12:29N 48°34' W 004°57'2 2.5
2017-Oct-30 11:47N 48°33' W 004°58'2 4.6
2017-Oct-30 11:15N 48°30' W 004°59'1 3.4
2017-Oct-30 10:58N 48°29' W 004°60'2 4.5
2017-Oct-30 10:29N 48°28' W 005°01'3 4.6
2017-Oct-30 09:53N 48°26' W 005°05'2 3.5
2017-Oct-30 09:23N 48°25' W 005°07'1 2.6
2017-Oct-30 08:59N 48°25' W 005°08'2 3.3
2017-Oct-30 08:28N 48°27' W 005°07'1 0.0
2017-Oct-29 17:10N 48°27' W 005°07'2 5.1
2017-Oct-29 16:50N 48°26' W 005°09'2 3.2
2017-Oct-29 16:15N 48°24' W 005°07'1 4.5
2017-Oct-29 16:00N 48°23' W 005°08'2 3.2
2017-Oct-29 15:30N 48°22' W 005°08'2 3.2
2017-Oct-29 14:47N 48°21' W 005°05'1 4.3
2017-Oct-29 14:30N 48°21' W 005°03'2 2.9
2017-Oct-29 13:58N 48°21' W 005°01'1 2.6
2017-Oct-29 13:28N 48°20' W 004°60'2 4.1
2017-Oct-29 12:59N 48°18' W 005°01'0 0.8
2017-Oct-29 12:26N 48°18' W 005°01'  
Track history (hours):
 
Tides and Currents Weather Stations Pressure Air Temp Water Temp Dewpoint Dewpoint Depression Visibility Wind Speed Wind Dir Waves Ship Positions

Shamrock

Last reported at 2017-Nov-08 12:07 UTC. Time now 2017-Nov-19 06:56 UTC.
Position N 50°39' W 001°53'.
Warning: this ship's position is 10 days out of date.

Length 12 m.

Type: Sailing vessel. MMSI: 227167240.

Date/timePositionNaut miles runAvg speedWind from/ knotsBaromVisibWave heightAir tempDewpointWater temp
2017-Nov-08 12:07N 50°39' W 001°53'1 5.2
2017-Nov-08 11:59N 50°39' W 001°54'4 3.2
2017-Nov-08 10:52N 50°42' W 001°57'1 0.1
2017-Nov-07 21:03N 50°42' W 001°59'0 2.1
2017-Nov-07 20:59N 50°42' W 001°59'2 1.5
2017-Nov-07 19:36N 50°41' W 001°57'1 3.8
2017-Nov-07 19:19N 50°40' W 001°56'1 2.7
2017-Nov-07 19:00N 50°39' W 001°55'0 0.8
2017-Nov-07 18:30N 50°39' W 001°55'0 0.5
2017-Nov-07 18:00N 50°39' W 001°55'0 0.2
2017-Nov-07 16:41N 50°39' W 001°55'0 2.7
2017-Nov-07 16:30N 50°39' W 001°55'1 1.7
2017-Nov-07 16:00N 50°38' W 001°54'1 2.3
2017-Nov-07 15:30N 50°37' W 001°53'  
2017-Oct-31 09:08N 48°41' W 004°31'2 5.2
2017-Oct-31 08:47N 48°41' W 004°34'4 0.3
2017-Oct-30 18:46N 48°37' W 004°37'1 4.4
2017-Oct-30 18:30N 48°37' W 004°38'2 2.2
2017-Oct-30 17:39N 48°38' W 004°41'11 2.3
2017-Oct-30 12:50N 48°34' W 004°56'0 0.6
2017-Oct-30 12:29N 48°34' W 004°57'2 2.5
2017-Oct-30 11:47N 48°33' W 004°58'2 4.6
2017-Oct-30 11:15N 48°30' W 004°59'1 3.4
2017-Oct-30 10:58N 48°29' W 004°60'2 4.5
2017-Oct-30 10:29N 48°28' W 005°01'3 4.6
2017-Oct-30 09:53N 48°26' W 005°05'2 3.5
2017-Oct-30 09:23N 48°25' W 005°07'1 2.6
2017-Oct-30 08:59N 48°25' W 005°08'2 3.3
2017-Oct-30 08:28N 48°27' W 005°07'1 0.0
2017-Oct-29 17:10N 48°27' W 005°07'2 5.1
2017-Oct-29 16:50N 48°26' W 005°09'2 3.2
2017-Oct-29 16:15N 48°24' W 005°07'1 4.5
2017-Oct-29 16:00N 48°23' W 005°08'2 3.2
2017-Oct-29 15:30N 48°22' W 005°08'2 3.2
2017-Oct-29 14:47N 48°21' W 005°05'1 4.3
2017-Oct-29 14:30N 48°21' W 005°03'2 2.9
2017-Oct-29 13:58N 48°21' W 005°01'1 2.6
2017-Oct-29 13:28N 48°20' W 004°60'2 4.1
2017-Oct-29 12:59N 48°18' W 005°01'0 0.8
2017-Oct-29 12:26N 48°18' W 005°01'  

Dump ship's entire track history